Time;durP1;ratioP1;P1;durP2;ratioP2;P2;SDS_P1;SDS_P2;PMS_P1;PMS_P2;Temp;Humidity;BMP_temperature;BMP_pressure;BME280_temperature;BME280_humidity;BME280_pressure;Samples;Min_cycle;Max_cycle;Signal;HPM_P1;HPM_P2
2021/11/05 00:02:02;;;;;;;2.20;1.50;;;;;;;-145.69;100.00;72353.66;5073322;28;20202;-79
2021/11/05 00:04:28;;;;;;;4.73;1.60;;;;;;;-145.69;100.00;72345.69;5073437;28;20194;-79
2021/11/05 00:06:59;;;;;;;3.43;1.37;;;;;;;-145.69;100.00;72351.66;5073358;28;20201;-78
2021/11/05 00:09:32;;;;;;;2.30;1.40;;;;;;;-145.69;100.00;72349.69;5074068;28;20203;-78
2021/11/05 00:12:00;;;;;;;1.50;1.33;;;;;;;-145.69;100.00;72353.66;5073702;28;20194;-78
2021/11/05 00:14:27;;;;;;;2.20;1.83;;;;;;;-145.69;100.00;72345.69;5073605;28;20226;-78
2021/11/05 00:16:56;;;;;;;4.00;1.93;;;;;;;-145.69;100.00;72347.69;5073441;28;20542;-79
2021/11/05 00:19:28;;;;;;;2.10;1.73;;;;;;;-145.69;100.00;72351.66;5073373;28;20210;-78
2021/11/05 00:21:57;;;;;;;2.10;1.80;;;;;;;-145.69;100.00;72349.69;5073629;28;20201;-79
2021/11/05 00:24:25;;;;;;;3.07;1.80;;;;;;;-145.69;100.00;72341.72;5073407;28;20214;-79
2021/11/05 00:26:58;;;;;;;3.17;1.93;;;;;;;-145.69;100.00;72337.75;5073235;28;20199;-79
2021/11/05 00:29:24;;;;;;;2.70;2.00;;;;;;;-145.69;100.00;72345.69;5073234;28;20681;-78
2021/11/05 00:31:51;;;;;;;2.87;1.73;;;;;;;-145.69;100.00;72343.72;5073214;28;20241;-78
2021/11/05 00:34:20;;;;;;;2.00;1.53;;;;;;;-145.69;100.00;72349.69;5073231;28;20292;-78
2021/11/05 00:36:49;;;;;;;5.80;1.87;;;;;;;-145.69;100.00;72345.69;5073268;28;20298;-78
2021/11/05 00:39:25;;;;;;;2.43;1.90;;;;;;;-145.69;100.00;72341.72;5073182;28;20557;-79
2021/11/05 00:41:56;;;;;;;3.03;1.90;;;;;;;-145.69;100.00;72341.72;5073095;28;20232;-78
2021/11/05 00:44:22;;;;;;;2.70;1.87;;;;;;;-145.69;100.00;72353.66;5073453;28;20206;-79
2021/11/05 00:46:51;;;;;;;2.50;1.73;;;;;;;-145.69;100.00;72355.66;5073264;28;20195;-79
2021/11/05 00:49:20;;;;;;;2.67;1.87;;;;;;;-145.69;100.00;72351.66;5073295;28;20202;-79
2021/11/05 00:51:46;;;;;;;3.63;2.10;;;;;;;-145.69;100.00;72369.59;5072792;28;20260;-79
2021/11/05 00:54:13;;;;;;;3.07;2.10;;;;;;;-145.69;100.00;72379.53;5072988;28;20223;-79
2021/11/05 00:56:42;;;;;;;3.07;2.10;;;;;;;-145.69;100.00;72387.50;5077093;28;20244;-78
2021/11/05 00:59:10;;;;;;;2.80;1.80;;;;;;;-145.69;100.00;72389.50;5077437;28;20198;-78
2021/11/05 01:01:37;;;;;;;6.63;2.10;;;;;;;-145.69;100.00;72385.50;5077248;28;20206;-78
2021/11/05 01:04:05;;;;;;;3.67;2.20;;;;;;;-145.69;100.00;72393.47;5077115;28;20203;-78
2021/11/05 01:06:32;;;;;;;2.67;1.90;;;;;;;-145.69;100.00;72381.53;5077103;28;20207;-79
2021/11/05 01:09:01;;;;;;;2.63;1.93;;;;;;;-145.69;100.00;72385.50;5076905;28;20248;-78
2021/11/05 01:11:28;;;;;;;2.17;1.80;;;;;;;-145.69;100.00;72383.53;5077185;28;20293;-78
2021/11/05 01:13:54;;;;;;;3.07;2.17;;;;;;;-145.69;100.00;72389.50;5076912;28;20227;-78
2021/11/05 01:16:23;;;;;;;3.60;1.90;;;;;;;-145.69;100.00;72391.47;5076833;28;20194;-78
2021/11/05 01:18:49;;;;;;;2.47;1.87;;;;;;;-145.69;100.00;72383.53;5076015;28;20256;-78
2021/11/05 01:21:16;;;;;;;2.77;1.80;;;;;;;-145.69;100.00;72381.53;5076893;28;20294;-78
2021/11/05 01:23:43;;;;;;;2.70;1.80;;;;;;;-145.69;100.00;72369.59;5076543;28;20207;-79
2021/11/05 01:26:10;;;;;;;2.37;1.90;;;;;;;-145.69;100.00;72373.56;5076812;28;20202;-79
2021/11/05 01:28:37;;;;;;;1.93;1.63;;;;;;;-145.69;100.00;72361.63;5076735;28;20199;-79
2021/11/05 01:31:03;;;;;;;2.77;1.57;;;;;;;-145.69;100.00;72367.59;5076626;28;20198;-78
2021/11/05 01:33:31;;;;;;;3.07;1.40;;;;;;;-145.69;100.00;72369.59;5076311;28;20233;-79
2021/11/05 01:35:58;;;;;;;1.67;1.17;;;;;;;-145.69;100.00;72365.59;5076285;28;20202;-79
2021/11/05 01:38:25;;;;;;;1.93;1.43;;;;;;;-145.69;100.00;72369.59;5076358;28;20203;-79
2021/11/05 01:40:51;;;;;;;2.07;1.60;;;;;;;-145.69;100.00;72381.53;5076504;28;20199;-79
2021/11/05 01:43:18;;;;;;;1.90;1.20;;;;;;;-145.69;100.00;72381.53;5076604;28;20194;-78
2021/11/05 01:45:45;;;;;;;1.50;1.37;;;;;;;-145.69;100.00;72375.56;5076365;28;20205;-79
2021/11/05 01:48:12;;;;;;;4.23;1.43;;;;;;;-145.69;100.00;72377.53;5076181;28;20198;-78
2021/11/05 01:50:42;;;;;;;2.07;1.80;;;;;;;-145.69;100.00;72379.53;5075896;28;20198;-79
2021/11/05 01:53:10;;;;;;;1.93;1.40;;;;;;;-145.69;100.00;72373.56;5076134;28;20238;-79
2021/11/05 01:55:39;;;;;;;1.87;1.40;;;;;;;-145.69;100.00;72377.53;5075966;28;20210;-79
2021/11/05 01:58:06;;;;;;;1.67;1.20;;;;;;;-145.69;100.00;72365.59;5076219;28;20202;-79
2021/11/05 02:00:33;;;;;;;2.00;1.30;;;;;;;-145.69;100.00;72365.59;5075821;28;20210;-79
2021/11/05 02:03:00;;;;;;;1.50;1.33;;;;;;;-145.69;100.00;72363.63;5075953;28;20523;-78
2021/11/05 02:05:27;;;;;;;1.37;1.20;;;;;;;-145.69;100.00;72371.56;5075895;28;20249;-78
2021/11/05 02:07:57;;;;;;;1.50;1.30;;;;;;;-145.69;100.00;72371.56;5075952;28;20205;-79
2021/11/05 02:10:26;;;;;;;1.70;1.30;;;;;;;-145.69;100.00;72381.53;5076181;28;20259;-78
2021/11/05 02:12:57;;;;;;;1.67;1.20;;;;;;;-145.69;100.00;72387.50;5075780;28;20276;-79
2021/11/05 02:15:24;;;;;;;1.20;1.10;;;;;;;-145.69;100.00;72395.47;5075765;28;20237;-79
2021/11/05 02:17:51;;;;;;;1.17;0.90;;;;;;;-145.69;100.00;72397.44;5075747;28;20210;-78
2021/11/05 02:20:19;;;;;;;1.70;1.20;;;;;;;-145.69;100.00;72393.47;5075477;28;20675;-79
2021/11/05 02:22:48;;;;;;;3.63;1.30;;;;;;;-145.69;100.00;72389.50;5075713;28;20260;-78
2021/11/05 02:25:17;;;;;;;1.40;1.30;;;;;;;-145.69;100.00;72385.50;5075682;28;20229;-79
2021/11/05 02:27:43;;;;;;;1.53;1.20;;;;;;;-145.69;100.00;72381.53;5075495;28;20206;-79
2021/11/05 02:30:12;;;;;;;1.47;1.30;;;;;;;-145.69;100.00;72391.47;5075556;28;20217;-79
2021/11/05 02:32:41;;;;;;;2.57;1.23;;;;;;;-145.69;100.00;72395.47;5075513;28;20259;-79
2021/11/05 02:35:10;;;;;;;1.67;1.07;;;;;;;-145.69;100.00;72405.41;5075532;28;20237;-79
2021/11/05 02:37:36;;;;;;;3.20;1.57;;;;;;;-145.69;100.00;72409.38;5075481;28;20202;-79
2021/11/05 02:40:05;;;;;;;1.17;1.07;;;;;;;-145.69;100.00;72425.31;5075365;28;20730;-78
2021/11/05 02:42:35;;;;;;;3.70;1.23;;;;;;;-145.69;100.00;72437.25;5075135;28;20252;-79
2021/11/05 02:45:03;;;;;;;1.63;1.40;;;;;;;-145.69;100.00;72447.22;5075160;28;20199;-78
2021/11/05 02:47:29;;;;;;;3.53;1.20;;;;;;;-145.69;100.00;72455.16;5075198;28;20202;-79
2021/11/05 02:49:58;;;;;;;1.73;1.50;;;;;;;-145.69;100.00;72455.16;5075170;28;20199;-79
2021/11/05 02:52:29;;;;;;;1.43;1.30;;;;;;;-145.69;100.00;72457.16;5075050;28;20281;-79
2021/11/05 02:54:56;;;;;;;2.23;1.63;;;;;;;-145.69;100.00;72465.13;5074954;28;20222;-79
2021/11/05 02:57:24;;;;;;;1.93;1.30;;;;;;;-145.69;100.00;72469.09;5074636;28;20198;-79
2021/11/05 02:59:50;;;;;;;1.93;1.40;;;;;;;-145.69;100.00;72479.06;5074704;28;20198;-79
2021/11/05 03:02:21;;;;;;;2.53;1.57;;;;;;;-145.69;100.00;72481.03;5074897;28;20202;-79
2021/11/05 03:04:48;;;;;;;1.60;1.40;;;;;;;-145.69;100.00;72493.00;5074717;28;20600;-78
2021/11/05 03:07:14;;;;;;;1.80;1.40;;;;;;;-145.69;100.00;72496.97;5074928;28;20198;-79
2021/11/05 03:09:42;;;;;;;4.00;1.50;;;;;;;-145.69;100.00;72487.00;5074419;28;20199;-78
2021/11/05 03:12:10;;;;;;;2.20;1.40;;;;;;;-145.69;100.00;72510.91;5074513;28;20230;-78
2021/11/05 03:14:39;;;;;;;1.40;1.30;;;;;;;-145.69;100.00;72510.91;5074610;28;20719;-78
2021/11/05 03:17:07;;;;;;;2.40;1.20;;;;;;;-145.69;100.00;72516.88;5074235;28;20199;-79
2021/11/05 03:19:36;;;;;;;2.20;1.43;;;;;;;-145.69;100.00;72524.84;5073955;28;20210;-78
2021/11/05 03:22:03;;;;;;;1.60;1.40;;;;;;;-145.69;100.00;72528.81;5074167;28;20194;-78
2021/11/05 03:24:32;;;;;;;1.60;1.20;;;;;;;-145.69;100.00;72520.84;5074329;28;20203;-78
2021/11/05 03:26:58;;;;;;;2.77;1.50;;;;;;;-145.69;100.00;72524.84;5074470;28;20198;-78
2021/11/05 03:29:25;;;;;;;1.47;1.17;;;;;;;-145.69;100.00;72524.84;5074325;28;20198;-79
2021/11/05 03:31:53;;;;;;;2.67;1.27;;;;;;;-145.69;100.00;72520.84;5074351;28;20203;-79
2021/11/05 03:34:19;;;;;;;2.00;1.47;;;;;;;-145.69;100.00;72532.78;5074038;28;20230;-78
2021/11/05 03:36:46;;;;;;;1.63;1.20;;;;;;;-145.69;100.00;72548.72;5074077;28;20249;-79
2021/11/05 03:39:12;;;;;;;1.93;1.30;;;;;;;-145.69;100.00;72546.72;5073873;28;20581;-78
2021/11/05 03:41:39;;;;;;;1.23;1.13;;;;;;;-145.69;100.00;72550.72;5074110;28;20203;-79
2021/11/05 03:44:05;;;;;;;1.53;1.20;;;;;;;-145.69;100.00;72552.69;5074241;28;20290;-79
2021/11/05 03:46:34;;;;;;;1.77;1.40;;;;;;;-145.69;100.00;72550.72;5074046;28;20198;-79
2021/11/05 03:49:05;;;;;;;1.50;1.17;;;;;;;-145.69;100.00;72554.69;5073939;28;20257;-79
2021/11/05 03:51:31;;;;;;;1.60;1.30;;;;;;;-145.69;100.00;72552.69;5073622;28;20206;-79
2021/11/05 03:53:58;;;;;;;2.13;1.50;;;;;;;-145.69;100.00;72548.72;5073326;28;20690;-79
2021/11/05 03:56:25;;;;;;;1.47;1.27;;;;;;;-145.69;100.00;72554.69;5073910;28;20198;-77
2021/11/05 03:58:54;;;;;;;2.10;1.23;;;;;;;-145.69;100.00;72556.69;5073790;28;20199;-78
2021/11/05 04:01:21;;;;;;;2.27;1.60;;;;;;;-145.69;100.00;72552.69;5073418;28;20699;-78
2021/11/05 04:03:48;;;;;;;2.10;1.20;;;;;;;-145.69;100.00;72558.66;5073544;28;20377;-78
2021/11/05 04:06:18;;;;;;;1.30;1.20;;;;;;;-145.69;100.00;72562.66;5073230;28;20214;-78
2021/11/05 04:08:45;;;;;;;1.87;1.30;;;;;;;-145.69;100.00;72564.66;5073876;28;20244;-78
2021/11/05 04:11:11;;;;;;;1.53;1.00;;;;;;;-145.69;100.00;72560.66;5073676;28;20206;-78
2021/11/05 04:13:38;;;;;;;1.20;1.10;;;;;;;-145.69;100.00;72560.66;5073389;28;20204;-78
2021/11/05 04:16:05;;;;;;;1.30;1.10;;;;;;;-145.69;100.00;72554.69;5073386;28;20210;-77
2021/11/05 04:18:34;;;;;;;1.97;1.57;;;;;;;-145.69;100.00;72558.66;5073262;28;20199;-79
2021/11/05 04:21:01;;;;;;;1.70;1.30;;;;;;;-145.69;100.00;72554.69;5073418;28;20245;-78
2021/11/05 04:23:29;;;;;;;1.43;1.30;;;;;;;-145.69;100.00;72552.69;5073523;28;20203;-79
2021/11/05 04:25:55;;;;;;;1.30;1.20;;;;;;;-145.69;100.00;72556.69;5073284;28;20206;-78
2021/11/05 04:28:25;;;;;;;2.20;1.27;;;;;;;-145.69;100.00;72556.69;5073349;28;20256;-79
2021/11/05 04:30:52;;;;;;;1.00;0.97;;;;;;;-145.69;100.00;72560.66;5072612;28;20199;-78
2021/11/05 04:33:18;;;;;;;1.50;1.10;;;;;;;-145.69;100.00;72556.69;5073083;28;20203;-78
2021/11/05 04:35:45;;;;;;;1.13;1.03;;;;;;;-145.69;100.00;72560.66;5073408;28;20227;-79
2021/11/05 04:38:12;;;;;;;4.10;1.30;;;;;;;-145.69;100.00;72560.66;5073368;28;20606;-79
2021/11/05 04:40:41;;;;;;;2.43;1.00;;;;;;;-145.69;100.00;72560.66;5073183;28;20244;-79
2021/11/05 04:43:08;;;;;;;1.17;0.90;;;;;;;-145.69;100.00;72556.69;5073091;28;20199;-79
2021/11/05 04:45:35;;;;;;;1.47;1.10;;;;;;;-145.69;100.00;72566.63;5073126;28;20225;-79
2021/11/05 04:48:02;;;;;;;1.53;1.20;;;;;;;-145.69;100.00;72566.63;5073008;28;20203;-79
2021/11/05 04:50:30;;;;;;;2.17;1.30;;;;;;;-145.69;100.00;72580.56;5073332;28;20199;-79
2021/11/05 04:52:57;;;;;;;1.30;1.20;;;;;;;-145.69;100.00;72594.50;5072746;28;20261;-78
2021/11/05 04:55:23;;;;;;;1.23;1.13;;;;;;;-145.69;100.00;72606.44;5073137;28;20226;-79
2021/11/05 04:57:52;;;;;;;1.23;1.13;;;;;;;-145.69;100.00;72612.41;5072927;28;20244;-79
2021/11/05 05:00:21;;;;;;;1.60;1.10;;;;;;;-145.69;100.00;72612.41;5072790;28;20666;-79
2021/11/05 05:02:47;;;;;;;1.20;1.10;;;;;;;-145.69;100.00;72610.44;5073177;28;20751;-78
2021/11/05 05:05:16;;;;;;;1.57;1.30;;;;;;;-145.69;100.00;72608.44;5073128;28;20210;-78
2021/11/05 05:07:43;;;;;;;2.03;1.40;;;;;;;-145.69;100.00;72606.44;5073102;28;20304;-79
2021/11/05 05:10:11;;;;;;;1.20;1.10;;;;;;;-145.69;100.00;72600.47;5072935;28;20256;-79
2021/11/05 05:12:38;;;;;;;2.97;1.50;;;;;;;-145.69;100.00;72592.50;5072840;28;20824;-79
2021/11/05 05:15:10;;;;;;;1.80;1.50;;;;;;;-145.69;100.00;72586.53;5072814;28;20707;-79
2021/11/05 05:17:37;;;;;;;1.40;1.20;;;;;;;-145.69;100.00;72584.56;5072991;28;20195;-78
2021/11/05 05:20:07;;;;;;;3.43;1.57;;;;;;;-145.69;100.00;72588.53;5072605;28;20199;-79
2021/11/05 05:22:33;;;;;;;1.73;1.10;;;;;;;-145.69;100.00;72590.53;5072706;28;20256;-80
2021/11/05 05:25:00;;;;;;;1.37;1.27;;;;;;;-145.69;100.00;72596.50;5072308;28;20256;-79
2021/11/05 05:27:26;;;;;;;5.03;1.20;;;;;;;-145.69;100.00;72592.50;5072905;28;20207;-78
2021/11/05 05:29:53;;;;;;;1.03;0.93;;;;;;;-145.69;100.00;72600.47;5072780;28;20207;-79
2021/11/05 05:32:21;;;;;;;1.07;0.80;;;;;;;-145.69;100.00;72598.47;5073152;28;20301;-79
2021/11/05 05:34:47;;;;;;;2.10;1.07;;;;;;;-145.69;100.00;72612.41;5072997;28;20226;-79
2021/11/05 05:37:14;;;;;;;2.13;1.20;;;;;;;-145.69;100.00;72604.44;5072791;28;20199;-79
2021/11/05 05:39:40;;;;;;;0.93;0.93;;;;;;;-145.69;100.00;72606.44;5072812;28;20202;-78
2021/11/05 05:42:07;;;;;;;1.80;1.20;;;;;;;-145.69;100.00;72608.44;5075653;28;20244;-79
2021/11/05 05:44:34;;;;;;;1.93;1.00;;;;;;;-145.69;100.00;72608.44;5076668;28;20202;-78
2021/11/05 05:47:01;;;;;;;1.10;1.00;;;;;;;-145.69;100.00;72608.44;5076355;28;20661;-78
2021/11/05 05:49:29;;;;;;;1.27;1.17;;;;;;;-145.69;100.00;72604.44;5076278;28;20547;-78
2021/11/05 05:51:58;;;;;;;1.87;1.00;;;;;;;-145.69;100.00;72606.44;5076378;28;20199;-79
2021/11/05 05:54:25;;;;;;;0.93;0.87;;;;;;;-145.69;100.00;72614.41;5076048;28;20234;-78
2021/11/05 05:56:52;;;;;;;1.27;1.10;;;;;;;-145.69;100.00;72616.41;5076504;28;20206;-78
2021/11/05 05:59:19;;;;;;;1.83;1.00;;;;;;;-145.69;100.00;72608.44;5076591;28;20240;-78
2021/11/05 06:01:45;;;;;;;2.80;0.90;;;;;;;-145.69;100.00;72610.44;5076172;28;20234;-78
2021/11/05 06:04:12;;;;;;;1.30;0.90;;;;;;;-145.69;100.00;72612.41;5075963;28;20629;-78
2021/11/05 06:06:43;;;;;;;0.80;0.80;;;;;;;-145.69;100.00;72614.41;5076185;28;20665;-78
2021/11/05 06:09:09;;;;;;;2.00;1.63;;;;;;;-145.69;100.00;72612.41;5075769;28;20209;-78
2021/11/05 06:11:36;;;;;;;1.93;1.50;;;;;;;-145.69;100.00;72596.50;5076049;28;20306;-78
2021/11/05 06:14:02;;;;;;;1.17;1.00;;;;;;;-145.69;100.00;72600.47;5075746;28;20211;-78
2021/11/05 06:16:29;;;;;;;1.03;0.97;;;;;;;-145.69;100.00;72606.44;5075821;28;20253;-79
2021/11/05 06:18:55;;;;;;;2.33;1.20;;;;;;;-145.69;100.00;72606.44;5075911;28;20202;-79
2021/11/05 06:21:24;;;;;;;1.10;1.00;;;;;;;-145.69;100.00;72608.44;5075629;28;20203;-78
2021/11/05 06:23:53;;;;;;;1.57;1.30;;;;;;;-145.69;100.00;72610.44;5075762;28;20206;-78
2021/11/05 06:26:19;;;;;;;1.23;1.00;;;;;;;-145.69;100.00;72616.41;5075812;28;20202;-78
2021/11/05 06:28:46;;;;;;;1.40;1.17;;;;;;;-145.69;100.00;72616.41;5075699;28;20252;-78
2021/11/05 06:31:12;;;;;;;1.57;1.30;;;;;;;-145.69;100.00;72616.41;5075344;28;20675;-78
2021/11/05 06:33:40;;;;;;;2.67;1.50;;;;;;;-145.69;100.00;72618.38;5075410;28;20202;-78
2021/11/05 06:36:07;;;;;;;1.70;1.03;;;;;;;-145.69;100.00;72618.38;5075355;28;20321;-78
2021/11/05 06:38:33;;;;;;;5.70;2.07;;;;;;;-145.69;100.00;72626.34;5075687;28;20200;-78
2021/11/05 06:41:01;;;;;;;1.63;1.20;;;;;;;-145.69;100.00;72620.38;5075349;28;20203;-78
2021/11/05 06:43:27;;;;;;;1.93;1.40;;;;;;;-145.69;100.00;72626.34;5075430;28;20198;-79
2021/11/05 06:45:55;;;;;;;1.57;1.00;;;;;;;-145.69;100.00;72626.34;5075262;28;20206;-78
2021/11/05 06:48:22;;;;;;;2.00;1.63;;;;;;;-145.69;100.00;72624.34;5075191;28;20204;-78
2021/11/05 06:50:51;;;;;;;1.87;1.50;;;;;;;-145.69;100.00;72626.34;5075074;28;20198;-78
2021/11/05 06:53:18;;;;;;;3.30;1.60;;;;;;;-145.69;100.00;72628.34;5073977;28;20288;-78
2021/11/05 06:55:44;;;;;;;3.40;2.30;;;;;;;-145.69;100.00;72630.31;5074524;28;20268;-78
2021/11/05 06:58:13;;;;;;;2.63;1.83;;;;;;;-145.69;100.00;72622.38;5074774;28;20203;-79
2021/11/05 07:00:40;;;;;;;5.17;1.90;;;;;;;-145.69;100.00;72620.38;5074786;28;20206;-78
2021/11/05 07:03:06;;;;;;;2.00;1.40;;;;;;;-145.69;100.00;72620.38;5075169;28;20611;-78
2021/11/05 07:05:34;;;;;;;1.73;1.30;;;;;;;-145.69;100.00;72620.38;5074296;28;20646;-78
2021/11/05 07:08:00;;;;;;;1.50;1.20;;;;;;;-145.69;100.00;72624.34;5074673;28;20199;-78
2021/11/05 07:10:27;;;;;;;4.63;1.10;;;;;;;-145.69;100.00;72616.41;5074531;28;20658;-78
2021/11/05 07:12:53;;;;;;;1.60;1.30;;;;;;;-145.69;100.00;72610.44;5074554;28;20199;-78
2021/11/05 07:15:23;;;;;;;2.90;1.67;;;;;;;-145.69;100.00;72598.47;5074608;28;20777;-78
2021/11/05 07:17:52;;;;;;;1.87;1.57;;;;;;;-145.69;100.00;72602.47;5073854;28;20286;-78
2021/11/05 07:20:19;;;;;;;2.40;1.27;;;;;;;-145.69;100.00;72588.53;5074313;28;20241;-78
2021/11/05 07:22:47;;;;;;;3.90;1.37;;;;;;;-145.69;100.00;72596.50;5074627;28;20206;-78
2021/11/05 07:25:16;;;;;;;1.43;1.20;;;;;;;-145.69;100.00;72582.56;5074675;28;20202;-78
2021/11/05 07:27:43;;;;;;;1.33;1.20;;;;;;;-145.69;100.00;72582.56;5074578;28;20311;-78
2021/11/05 07:30:13;;;;;;;1.57;1.17;;;;;;;-145.69;100.00;72570.63;5074260;28;20573;-78
2021/11/05 07:32:44;;;;;;;1.37;1.20;;;;;;;-145.69;100.00;72568.63;5074479;28;20199;-78
2021/11/05 07:35:11;;;;;;;0.87;0.80;;;;;;;-145.69;100.00;72576.59;5074093;28;20742;-78
2021/11/05 07:37:37;;;;;;;0.90;0.80;;;;;;;-145.69;100.00;72568.63;5073965;28;20199;-78
2021/11/05 07:40:05;;;;;;;1.10;0.93;;;;;;;-145.69;100.00;72560.66;5073915;28;20620;-78
2021/11/05 07:42:31;;;;;;;4.40;1.37;;;;;;;-145.69;100.00;72568.63;5073956;28;20260;-77
2021/11/05 07:45:01;;;;;;;6.43;3.40;;;;;;;-145.69;100.00;72562.66;5073993;28;20225;-78
2021/11/05 07:47:27;;;;;;;15.30;7.03;;;;;;;-145.69;100.00;72572.59;5074084;28;20206;-77
2021/11/05 07:49:55;;;;;;;2.57;1.50;;;;;;;-145.69;100.00;72576.59;5073638;28;20201;-77
2021/11/05 07:52:22;;;;;;;9.87;4.27;;;;;;;-145.69;100.00;72574.59;5073479;28;20226;-77
2021/11/05 07:54:49;;;;;;;3.50;1.47;;;;;;;-145.69;100.00;72584.56;5073493;28;20206;-78
2021/11/05 07:57:15;;;;;;;2.00;1.33;;;;;;;-145.69;100.00;72572.59;5073528;28;20206;-78
2021/11/05 07:59:42;;;;;;;6.23;3.13;;;;;;;-145.69;100.00;72560.66;5073562;28;20207;-77
2021/11/05 08:02:09;;;;;;;6.90;3.50;;;;;;;-145.69;100.00;72540.75;5073800;28;20221;-77
2021/11/05 08:04:37;;;;;;;10.47;4.47;;;;;;;-145.69;100.00;72506.91;5073538;28;20209;-77
2021/11/05 08:07:06;;;;;;;7.83;3.37;;;;;;;-145.69;100.00;72493.00;5073384;28;20572;-78
2021/11/05 08:09:33;;;;;;;6.73;3.63;;;;;;;-145.69;100.00;72469.09;5073471;28;20227;-77
2021/11/05 08:12:00;;;;;;;10.60;4.47;;;;;;;-145.69;100.00;72465.13;5073102;28;20206;-77
2021/11/05 08:14:26;;;;;;;6.47;3.17;;;;;;;-145.69;100.00;72427.31;5073663;28;20203;-78
2021/11/05 08:16:54;;;;;;;4.00;2.33;;;;;;;-145.69;100.00;72417.34;5073431;28;20226;-78
2021/11/05 08:19:21;;;;;;;5.17;3.10;;;;;;;-145.69;100.00;72425.31;5073378;28;20589;-78
2021/11/05 08:21:47;;;;;;;9.83;5.37;;;;;;;-145.69;100.00;72443.22;5073512;28;20206;-78
2021/11/05 08:24:15;;;;;;;4.63;2.97;;;;;;;-145.69;100.00;72445.22;5072892;28;20203;-77
2021/11/05 08:26:42;;;;;;;3.50;2.27;;;;;;;-145.69;100.00;72449.19;5073314;28;20202;-78
2021/11/05 08:29:10;;;;;;;4.17;2.67;;;;;;;-145.69;100.00;72441.25;5073079;28;20674;-78
2021/11/05 08:31:39;;;;;;;3.83;1.80;;;;;;;-145.69;100.00;72417.34;5073247;28;20195;-78
2021/11/05 08:34:05;;;;;;;1.97;1.50;;;;;;;-145.69;100.00;72363.63;5073245;28;20199;-78
2021/11/05 08:36:32;;;;;;;2.10;1.57;;;;;;;-145.69;100.00;72321.81;5072755;28;20234;-78
2021/11/05 08:39:03;;;;;;;2.90;1.50;;;;;;;-145.69;97.45;72315.84;5072962;28;20294;-78
2021/11/05 08:41:30;;;;;;;1.90;1.30;;;;;;;-145.69;99.75;72381.53;5072940;28;20210;-77
2021/11/05 08:43:57;;;;;;;4.43;1.50;;;;;;;-145.69;100.00;72415.38;5073145;28;20209;-77
2021/11/05 08:46:25;;;;;;;4.17;2.30;;;;;;;-145.69;100.00;72365.59;5073000;28;20206;-78
2021/11/05 08:48:54;;;;;;;1.60;1.40;;;;;;;-145.69;99.39;72333.75;5073024;28;20206;-77
2021/11/05 08:51:23;;;;;;;1.70;1.20;;;;;;;-145.69;100.00;72395.47;5072999;28;20634;-77
2021/11/05 08:53:50;;;;;;;1.77;1.47;;;;;;;-145.69;100.00;72367.59;5073024;28;20236;-77
2021/11/05 08:56:20;;;;;;;2.67;2.00;;;;;;;-145.69;100.00;72337.75;5073115;28;20245;-78
2021/11/05 08:58:48;;;;;;;2.65;1.77;;;;;;;-145.69;100.00;72349.69;5072692;28;20487;-77
2021/11/05 09:01:16;;;;;;;1.57;1.20;;;;;;;-145.69;100.00;72379.53;5073026;28;20205;-77
2021/11/05 09:03:43;;;;;;;3.80;2.17;;;;;;;-145.69;100.00;72381.53;5072587;28;20198;-77
2021/11/05 09:06:10;;;;;;;1.87;1.20;;;;;;;-145.69;99.92;72397.44;5072692;28;20205;-76
2021/11/05 09:08:37;;;;;;;2.40;1.20;;;;;;;-145.69;100.00;72377.53;5072376;28;20206;-77
2021/11/05 09:11:05;;;;;;;1.77;1.27;;;;;;;-145.69;100.00;72341.72;5072553;28;20562;-77
2021/11/05 09:13:33;;;;;;;1.67;1.30;;;;;;;-145.69;100.00;72401.44;5072943;28;20547;-77
2021/11/05 09:16:04;;;;;;;2.83;1.50;;;;;;;-145.69;100.00;72449.19;5074190;28;20232;-76
2021/11/05 09:18:34;;;;;;;2.10;1.43;;;;;;;-145.69;100.00;72483.03;5076478;28;20232;-76
2021/11/05 09:21:01;;;;;;;2.20;1.50;;;;;;;-145.69;100.00;72489.00;5075899;28;20198;-77
2021/11/05 09:23:28;;;;;;;3.20;1.90;;;;;;;-145.69;100.00;72493.00;5076748;28;20199;-76
2021/11/05 09:25:55;;;;;;;1.63;1.50;;;;;;;-145.69;100.00;72477.06;5066616;28;20550;-77
2021/11/05 09:28:21;;;;;;;2.10;1.30;;;;;;;-145.69;100.00;72461.13;5056449;28;20195;-77
2021/11/05 09:30:48;;;;;;;1.63;1.43;;;;;;;-145.69;100.00;72437.25;5055850;28;20621;-76
2021/11/05 09:33:18;;;;;;;2.30;1.30;;;;;;;-145.69;100.00;72465.13;5056286;28;20199;-76
2021/11/05 09:35:45;;;;;;;3.07;1.90;;;;;;;-145.69;100.00;72498.97;5056112;28;20223;-76
2021/11/05 09:38:14;;;;;;;1.83;1.67;;;;;;;-145.69;100.00;72477.06;5056209;28;20206;-76
2021/11/05 09:40:40;;;;;;;2.67;1.90;;;;;;;-145.69;100.00;72489.00;5056190;28;20227;-76
2021/11/05 09:43:10;;;;;;;3.10;1.90;;;;;;;-145.69;100.00;72483.03;5056239;28;20657;-75
2021/11/05 09:45:38;;;;;;;1.53;1.30;;;;;;;-145.69;100.00;72455.16;5055901;28;20200;-76
2021/11/05 09:48:10;;;;;;;2.57;1.57;;;;;;;-145.69;100.00;72475.06;5055572;28;20202;-75
2021/11/05 09:50:39;;;;;;;1.70;1.40;;;;;;;-145.69;100.00;72465.13;5056064;28;20622;-75
2021/11/05 09:53:06;;;;;;;2.60;1.60;;;;;;;-145.69;100.00;72500.94;5056589;28;20310;-78
2021/11/05 09:55:35;;;;;;;1.57;1.23;;;;;;;-145.69;100.00;72489.00;5062182;28;20202;-76
2021/11/05 09:58:02;;;;;;;2.10;1.30;;;;;;;-145.69;98.37;72449.19;5075766;28;20207;-76
2021/11/05 10:00:29;;;;;;;2.17;1.63;;;;;;;-145.69;100.00;72508.91;5076214;28;20221;-78
2021/11/05 10:02:58;;;;;;;2.30;1.60;;;;;;;-145.69;100.00;72485.03;5076059;28;20195;-78
2021/11/05 10:05:24;;;;;;;1.80;1.40;;;;;;;-145.69;99.44;72473.09;5075978;28;20619;-77
2021/11/05 10:07:54;;;;;;;2.00;1.70;;;;;;;-145.69;99.27;72441.25;5075823;28;20213;-76
2021/11/05 10:10:26;;;;;;;2.10;1.60;;;;;;;-145.69;97.60;72437.25;5075376;28;20195;-75
2021/11/05 10:13:02;;;;;;;1.77;1.37;;;;;;;-145.69;95.80;72461.13;5075435;28;20201;-77
2021/11/05 10:15:36;;;;;;;1.80;1.57;;;;;;;-145.69;99.06;72463.13;5075441;28;20680;-77
2021/11/05 10:18:10;;;;;;;2.43;1.80;;;;;;;-145.69;99.97;72445.22;5075462;28;20199;-78
2021/11/05 10:20:44;;;;;;;2.37;1.73;;;;;;;-145.69;98.30;72407.41;5074989;28;20677;-78
2021/11/05 10:23:14;;;;;;;3.07;1.77;;;;;;;-145.69;93.45;72401.44;5075593;28;20217;-78
2021/11/05 10:25:44;;;;;;;3.77;2.07;;;;;;;-145.69;97.42;72445.22;5075611;28;20199;-77
2021/11/05 10:28:16;;;;;;;2.17;1.73;;;;;;;-145.69;99.73;72489.00;5074216;28;20199;-77
2021/11/05 10:30:53;;;;;;;2.57;1.90;;;;;;;-145.69;100.00;72564.66;5075252;28;20289;-76
2021/11/05 10:33:24;;;;;;;3.27;2.00;;;;;;;-145.69;100.00;72556.69;5075103;28;20201;-77
2021/11/05 10:35:53;;;;;;;2.80;1.60;;;;;;;-145.69;100.00;72564.66;5074958;28;20692;-78
2021/11/05 10:38:23;;;;;;;3.33;2.17;;;;;;;-145.69;100.00;72568.63;5075202;28;20588;-77
2021/11/05 10:40:52;;;;;;;4.07;2.10;;;;;;;-145.69;100.00;72558.66;5075211;28;20209;-77
2021/11/05 10:43:34;;;;;;;1.90;1.43;;;;;;;-145.69;100.00;72538.78;5074903;28;20661;-77
2021/11/05 10:46:02;;;;;;;6.33;3.80;;;;;;;-145.69;100.00;72520.84;5074856;28;20199;-77
2021/11/05 10:48:30;;;;;;;2.60;2.07;;;;;;;-145.69;100.00;72532.78;5075171;28;20289;-77
2021/11/05 10:51:02;;;;;;;3.37;2.37;;;;;;;-145.69;100.00;72528.81;5075183;28;20205;-76
2021/11/05 10:53:33;;;;;;;2.40;1.57;;;;;;;-145.69;100.00;72518.88;5074866;28;20325;-77
2021/11/05 10:56:02;;;;;;;4.60;2.30;;;;;;;-145.69;100.00;72504.94;5074911;28;20202;-76
2021/11/05 10:58:32;;;;;;;2.67;1.90;;;;;;;-145.69;99.24;72536.78;5075055;28;20199;-77
2021/11/05 11:01:00;;;;;;;2.37;1.90;;;;;;;-145.69;100.00;72526.81;5074743;28;20301;-76
2021/11/05 11:03:32;;;;;;;2.70;2.17;;;;;;;-145.69;99.03;72504.94;5074581;28;20195;-76
2021/11/05 11:06:03;;;;;;;2.20;1.80;;;;;;;-145.69;99.40;72481.03;5074859;28;20202;-76
2021/11/05 11:08:34;;;;;;;3.60;1.80;;;;;;;-145.69;97.55;72471.09;5074790;28;20661;-76
2021/11/05 11:11:15;;;;;;;3.37;2.23;;;;;;;-145.69;95.51;72459.16;5074072;28;20199;-76
2021/11/05 11:13:42;;;;;;;2.50;2.00;;;;;;;-145.69;94.03;72447.22;5074146;28;20672;-76